首页
METAR-TAF:

METAR-TAF

机场 :

Shelby County Airport

阿拉巴斯特, 阿拉巴马州, 美国

纬度: 33-10-42N, 经度: 086-46-54W, 海拔: 178米

当前天气观测

该预报发布于42分钟前的22:53 UTC
风速4节,风向西北
温度 29°C
湿度 55%
气压 1015 hPa
能見度: 16.1公里
天空无云

METAR: KEET 202253Z AUTO 32004KT 10SM CLR 29/19 A2998 RMK AO2 SLP145 T02940189

时间: 18:35 (23:35 UTC)

预报

该预报发布于6小时和5分钟前的17:30 UTC
预报有效从20日的 18点(UTC)到 21日的 18点(UTC)
风速3节,风向西转西北
能見度: 10公里
散云层高于4000英尺
多云层高于5000英尺
从 20日的 2100点(UTC)
风速4节,风向
能見度: 10公里
散云层高于10000英尺
从 21日的 1300点(UTC)
风速5节,风向南转南东
能見度: 10公里
少量云层高于25000英尺

TAF: KEET 201730Z 2018/2118 30003KT P6SM SCT040 BKN050 FM202100 35004KT P6SM SCT100 FM211300 15005KT P6SM FEW250

超过4000个机场的气象观测和天气预报(METAR&TAF报告)。

可查询的气象台以黄色和红色小点在地图上表示。

将鼠标移到小点上方,可查看气象台名称。

然后点击查看天气观测和预报。

如需切换地图:点击带黑十字的绿色按钮放大地图;点击带横线的绿色按钮缩小地图;或者点击绿色箭头查看邻近地区的地图。


METAR-TAF: